Time;durP1;ratioP1;P1;durP2;ratioP2;P2;SDS_P1;SDS_P2;PMS_P1;PMS_P2;Temp;Humidity;BMP_temperature;BMP_pressure;BME280_temperature;BME280_humidity;BME280_pressure;Samples;Min_cycle;Max_cycle;Signal;HPM_P1;HPM_P2
2023/05/12 00:01:11;;;;;;;6.18;4.55;;;;;;;12.26;100.00;101532.88;5026188;28;20045;-63
2023/05/12 00:03:37;;;;;;;6.63;5.38;;;;;;;12.28;100.00;101530.78;5027518;28;20140;-63
2023/05/12 00:06:03;;;;;;;7.20;5.30;;;;;;;12.25;100.00;101531.22;5027274;28;20116;-65
2023/05/12 00:08:28;;;;;;;6.85;5.05;;;;;;;12.23;100.00;101528.69;5027512;28;20063;-64
2023/05/12 00:10:54;;;;;;;6.30;5.22;;;;;;;12.23;100.00;101527.84;5026507;28;20065;-65
2023/05/12 00:13:22;;;;;;;6.53;5.43;;;;;;;12.18;100.00;101523.84;5026622;28;20069;-65
2023/05/12 00:15:47;;;;;;;6.75;5.07;;;;;;;12.21;100.00;101530.81;5027581;28;20057;-65
2023/05/12 00:18:13;;;;;;;8.02;5.82;;;;;;;12.18;100.00;101531.28;5027524;28;20061;-63
2023/05/12 00:20:38;;;;;;;8.50;5.95;;;;;;;12.18;100.00;101534.03;5026149;28;20060;-64
2023/05/12 00:23:03;;;;;;;7.75;6.20;;;;;;;12.16;100.00;101538.91;5024708;28;20018;-65
2023/05/12 00:25:29;;;;;;;7.65;6.32;;;;;;;12.11;100.00;101525.81;5027128;28;20383;-64
2023/05/12 00:27:54;;;;;;;7.47;5.60;;;;;;;12.06;100.00;101527.53;5026293;28;20056;-64
2023/05/12 00:30:19;;;;;;;7.20;6.50;;;;;;;12.04;100.00;101526.94;5025792;28;20060;-65
2023/05/12 00:32:45;;;;;;;7.18;6.22;;;;;;;12.04;100.00;101524.19;5027009;28;20026;-63
2023/05/12 00:35:10;;;;;;;7.53;6.20;;;;;;;12.00;100.00;101522.94;5025393;28;20416;-65
2023/05/12 00:37:35;;;;;;;7.05;6.30;;;;;;;11.95;100.00;101521.69;5026943;28;20040;-63
2023/05/12 00:40:01;;;;;;;7.50;6.45;;;;;;;11.99;100.00;101521.25;5025762;28;20049;-65
2023/05/12 00:42:26;;;;;;;7.50;6.80;;;;;;;11.94;100.00;101517.25;5024491;28;20037;-65
2023/05/12 00:44:51;;;;;;;7.40;6.70;;;;;;;11.98;100.00;101522.34;5026167;28;20466;-65
2023/05/12 00:47:18;;;;;;;7.85;6.60;;;;;;;11.95;100.00;101516.19;5027501;28;20033;-64
2023/05/12 00:49:44;;;;;;;7.70;6.73;;;;;;;11.92;100.00;101516.66;5027032;28;20025;-62
2023/05/12 00:52:09;;;;;;;7.75;6.95;;;;;;;11.89;100.00;101516.25;5023098;28;20025;-63
2023/05/12 00:54:36;;;;;;;8.13;6.70;;;;;;;11.86;100.00;101514.81;5026844;28;20021;-65
2023/05/12 00:57:02;;;;;;;8.15;7.18;;;;;;;11.88;100.00;101512.66;5024785;28;20742;-64
2023/05/12 00:59:28;;;;;;;7.93;7.13;;;;;;;11.85;100.00;101510.34;5026539;28;20103;-64
2023/05/12 01:01:55;;;;;;;7.97;7.07;;;;;;;11.87;100.00;101515.63;5023937;28;20025;-65
2023/05/12 01:04:20;;;;;;;9.23;7.95;;;;;;;11.85;100.00;101504.84;5026406;28;20040;-65
2023/05/12 01:07:08;;;;;;;8.90;8.00;;;;;;;11.90;100.00;101504.16;5026810;28;20029;-65
2023/05/12 01:09:34;;;;;;;;;;;;;;;11.96;100.00;101497.75;5026875;28;20079;-65
2023/05/12 01:11:59;;;;;;;8.00;7.20;;;;;;;11.88;100.00;101501.66;5023668;28;19921;-65
2023/05/12 01:14:24;;;;;;;8.70;7.80;;;;;;;11.86;100.00;101495.53;5026551;28;20037;-63
2023/05/12 01:16:57;;;;;;;11.20;7.65;;;;;;;11.86;100.00;101494.66;5026722;28;20499;-65
2023/05/12 01:19:41;;;;;;;8.90;8.00;;;;;;;11.87;100.00;101499.97;5026324;28;20069;-63
2023/05/12 01:22:08;;;;;;;9.00;8.10;;;;;;;11.82;100.00;101501.72;5024606;28;20845;-65
2023/05/12 01:24:46;;;;;;;9.13;7.97;;;;;;;11.82;100.00;101497.03;5026490;28;20025;-65
2023/05/12 01:27:13;;;;;;;8.85;7.97;;;;;;;11.80;100.00;101496.38;5010993;28;20476;-64
2023/05/12 01:29:39;;;;;;;9.23;8.32;;;;;;;11.75;100.00;101496.19;5026414;28;20367;-65
2023/05/12 01:32:05;;;;;;;9.20;8.30;;;;;;;11.78;100.00;101495.75;5024669;28;20017;-63
2023/05/12 01:34:32;;;;;;;8.10;7.30;;;;;;;11.73;100.00;101494.75;5025754;28;20364;-65
2023/05/12 01:36:58;;;;;;;8.43;7.53;;;;;;;11.74;100.00;101488.19;5025503;28;20040;-64
2023/05/12 01:39:23;;;;;;;8.20;7.28;;;;;;;11.71;100.00;101489.47;5025246;28;20041;-65
2023/05/12 01:41:48;;;;;;;6.90;6.20;;;;;;;11.68;100.00;101484.41;5024264;28;20057;-65
2023/05/12 01:44:13;;;;;;;8.57;6.63;;;;;;;11.66;100.00;101494.81;5020879;28;20028;-65
2023/05/12 01:46:39;;;;;;;7.22;6.20;;;;;;;11.61;100.00;101486.38;5026116;28;20045;-65
2023/05/12 01:49:04;;;;;;;8.50;6.55;;;;;;;11.62;100.00;101496.31;5025317;28;20057;-63
2023/05/12 01:51:30;;;;;;;7.80;6.05;;;;;;;11.60;100.00;101496.50;5024692;28;20164;-65
2023/05/12 01:53:55;;;;;;;7.30;6.28;;;;;;;11.59;100.00;101489.31;5025452;28;20041;-63
2023/05/12 01:56:21;;;;;;;7.72;6.18;;;;;;;11.59;100.00;101488.47;5025250;28;20540;-65
2023/05/12 01:58:46;;;;;;;7.10;6.28;;;;;;;11.58;100.00;101475.81;5026337;28;20552;-63
2023/05/12 02:01:12;;;;;;;7.07;6.13;;;;;;;11.55;100.00;101489.97;5024829;28;20104;-65
2023/05/12 02:03:37;;;;;;;7.22;6.10;;;;;;;11.50;100.00;101487.91;5026296;28;20029;-65
2023/05/12 02:06:03;;;;;;;7.30;5.95;;;;;;;11.50;100.00;101478.81;5025182;28;20025;-65
2023/05/12 02:08:28;;;;;;;7.07;5.90;;;;;;;11.48;100.00;101478.19;5026439;28;20057;-66
2023/05/12 02:11:04;;;;;;;7.28;5.30;;;;;;;11.47;100.00;101476.50;5024104;28;20029;-64
2023/05/12 02:13:30;;;;;;;6.97;5.55;;;;;;;11.43;100.00;101471.44;5025632;28;20052;-65
2023/05/12 02:15:55;;;;;;;6.20;4.97;;;;;;;11.44;100.00;101472.28;5027061;28;20018;-66
2023/05/12 02:18:20;;;;;;;7.90;5.50;;;;;;;11.44;100.00;101477.78;5029864;28;20071;-65
2023/05/12 02:20:46;;;;;;;6.63;5.28;;;;;;;11.41;100.00;101465.34;5027925;28;20030;-63
2023/05/12 02:23:11;;;;;;;5.82;4.70;;;;;;;11.40;100.00;101471.03;5027746;28;20683;-66
2023/05/12 02:25:36;;;;;;;6.40;4.75;;;;;;;11.40;100.00;101469.16;5028690;28;20036;-64
2023/05/12 02:28:02;;;;;;;7.53;5.95;;;;;;;11.39;100.00;101461.94;5029733;28;20022;-66
2023/05/12 02:30:28;;;;;;;7.65;5.30;;;;;;;11.37;100.00;101460.50;5028805;28;20061;-64
2023/05/12 02:32:53;;;;;;;6.60;4.80;;;;;;;11.34;100.00;101456.25;5029626;28;20076;-64
2023/05/12 02:35:18;;;;;;;4.95;4.15;;;;;;;11.34;100.00;101458.16;5029214;28;20166;-65
2023/05/12 02:37:43;;;;;;;5.35;4.30;;;;;;;11.30;100.00;101459.66;5029164;28;20040;-65
2023/05/12 02:40:09;;;;;;;6.18;4.18;;;;;;;11.29;100.00;101453.31;5026990;28;20723;-65
2023/05/12 02:42:37;;;;;;;5.38;4.28;;;;;;;11.30;100.00;101452.25;5028847;28;20037;-65
2023/05/12 02:45:02;;;;;;;5.45;4.55;;;;;;;11.29;100.00;101455.25;5028784;28;20098;-64
2023/05/12 02:47:30;;;;;;;5.45;4.20;;;;;;;11.32;100.00;101452.06;5029649;28;20056;-64
2023/05/12 02:49:55;;;;;;;5.60;4.22;;;;;;;11.27;100.00;101447.22;5028380;28;20042;-63
2023/05/12 02:52:21;;;;;;;4.75;3.40;;;;;;;11.27;100.00;101441.72;5028189;28;20397;-64
2023/05/12 02:54:46;;;;;;;5.05;3.70;;;;;;;11.25;100.00;101443.81;5028782;28;20112;-65
2023/05/12 02:57:11;;;;;;;4.85;3.70;;;;;;;11.27;100.00;101438.13;5028778;28;20029;-65
2023/05/12 02:59:36;;;;;;;5.10;3.67;;;;;;;11.27;100.00;101436.22;5028254;28;20426;-64
2023/05/12 03:02:03;;;;;;;4.97;3.88;;;;;;;11.24;100.00;101436.66;5027429;28;20430;-63
2023/05/12 03:04:28;;;;;;;4.18;3.55;;;;;;;11.25;100.00;101434.75;5016707;28;20360;-63
2023/05/12 03:06:54;;;;;;;4.50;3.53;;;;;;;11.25;100.00;101429.25;5028232;28;20057;-65
2023/05/12 03:09:19;;;;;;;5.50;3.75;;;;;;;11.23;100.00;101432.22;5027352;28;20043;-65
2023/05/12 03:11:45;;;;;;;5.55;3.90;;;;;;;11.23;100.00;101429.47;5027239;28;20072;-66
2023/05/12 03:14:10;;;;;;;4.88;3.78;;;;;;;11.22;100.00;101419.53;5027723;28;20017;-65
2023/05/12 03:16:35;;;;;;;5.10;3.90;;;;;;;11.22;100.00;101430.53;5027501;28;20094;-63
2023/05/12 03:19:01;;;;;;;5.38;3.92;;;;;;;11.21;100.00;101437.09;5028654;28;20086;-65
2023/05/12 03:21:27;;;;;;;5.30;3.97;;;;;;;11.23;100.00;101429.47;5028602;28;20468;-64
2023/05/12 03:23:52;;;;;;;5.30;3.85;;;;;;;11.25;100.00;101421.84;5028933;28;20029;-64
2023/05/12 03:26:18;;;;;;;5.93;4.25;;;;;;;11.23;100.00;101421.22;5026540;28;20087;-63
2023/05/12 03:28:43;;;;;;;6.03;3.88;;;;;;;11.27;100.00;101419.72;5028871;28;20032;-65
2023/05/12 03:31:09;;;;;;;5.90;4.32;;;;;;;11.27;100.00;101416.13;5028070;28;20022;-65
2023/05/12 03:33:34;;;;;;;5.47;4.22;;;;;;;11.29;100.00;101414.00;5028312;28;20033;-64
2023/05/12 03:35:59;;;;;;;6.70;5.00;;;;;;;11.25;100.00;101410.84;5026302;28;20451;-65
2023/05/12 03:38:25;;;;;;;8.02;5.32;;;;;;;11.24;100.00;101417.41;5029034;28;20029;-65
2023/05/12 03:40:51;;;;;;;6.72;5.05;;;;;;;11.24;100.00;101411.91;5027441;28;20440;-65
2023/05/12 03:43:17;;;;;;;7.50;5.88;;;;;;;11.23;100.00;101407.47;5028683;28;20069;-65
2023/05/12 03:45:42;;;;;;;6.78;5.30;;;;;;;11.25;100.00;101410.00;5021325;28;20433;-64
2023/05/12 03:48:07;;;;;;;8.15;6.43;;;;;;;11.24;100.00;101405.56;5026153;28;20037;-64
2023/05/12 03:50:32;;;;;;;6.97;5.78;;;;;;;11.23;100.00;101404.72;5028228;28;20469;-63
2023/05/12 03:52:58;;;;;;;8.60;6.63;;;;;;;11.22;100.00;101403.03;5008905;28;20022;-65
2023/05/12 03:55:23;;;;;;;9.73;7.63;;;;;;;11.22;100.00;101400.28;5016463;28;20029;-65
2023/05/12 03:57:49;;;;;;;9.25;6.90;;;;;;;11.24;100.00;101402.81;5028372;28;21270;-64
2023/05/12 04:00:14;;;;;;;10.32;7.35;;;;;;;11.22;100.00;101400.28;5025303;28;20468;-63
2023/05/12 04:02:40;;;;;;;9.88;7.28;;;;;;;11.23;100.00;101398.38;5028194;28;20174;-62
2023/05/12 04:05:07;;;;;;;10.32;7.60;;;;;;;11.23;100.00;101398.38;5026321;28;20129;-65
2023/05/12 04:07:32;;;;;;;10.48;8.18;;;;;;;11.27;100.00;101397.72;5026370;28;20030;-64
2023/05/12 04:09:59;;;;;;;10.40;8.38;;;;;;;11.22;100.00;101404.97;5026375;28;20109;-65
2023/05/12 04:12:24;;;;;;;10.55;7.82;;;;;;;11.22;100.00;101399.47;5027457;28;20048;-65
2023/05/12 04:14:49;;;;;;;12.02;9.25;;;;;;;11.22;100.00;101396.72;5026882;28;20412;-65
2023/05/12 04:17:17;;;;;;;12.18;9.50;;;;;;;11.24;100.00;101398.16;5027362;28;20037;-65
2023/05/12 04:19:42;;;;;;;11.75;9.57;;;;;;;11.25;100.00;101399.00;5027724;28;20022;-64
2023/05/12 04:22:08;;;;;;;12.65;9.55;;;;;;;11.25;100.00;101399.00;5027518;28;20087;-64
2023/05/12 04:24:35;;;;;;;12.57;9.82;;;;;;;11.25;100.00;101396.25;5026466;28;20751;-64
2023/05/12 04:27:00;;;;;;;13.00;10.02;;;;;;;11.25;100.00;101399.00;5027146;28;20358;-65
2023/05/12 04:29:26;;;;;;;13.15;10.75;;;;;;;11.30;100.00;101401.91;5027339;28;20037;-64
2023/05/12 04:31:53;;;;;;;13.35;10.88;;;;;;;11.28;100.00;101407.66;5026232;28;20029;-65
2023/05/12 04:34:18;;;;;;;14.85;11.13;;;;;;;11.24;100.00;101394.56;5026822;28;20033;-64
2023/05/12 04:36:44;;;;;;;15.05;12.88;;;;;;;11.27;100.00;101400.47;5027339;28;20388;-64
2023/05/12 04:39:09;;;;;;;15.05;11.15;;;;;;;11.28;100.00;101401.31;5025933;28;20091;-65
2023/05/12 04:41:35;;;;;;;16.10;11.85;;;;;;;11.27;100.00;101400.47;5026627;28;20033;-64
2023/05/12 04:44:00;;;;;;;16.02;12.70;;;;;;;11.27;100.00;101403.22;5026343;28;20376;-65
2023/05/12 04:46:25;;;;;;;15.13;11.70;;;;;;;11.41;100.00;101398.47;5026072;28;20455;-65
2023/05/12 04:48:51;;;;;;;15.27;11.85;;;;;;;11.35;100.00;101404.84;5027375;28;20029;-62
2023/05/12 04:51:16;;;;;;;17.55;14.32;;;;;;;11.34;100.00;101414.16;5027169;28;20044;-65
2023/05/12 04:53:41;;;;;;;16.13;13.32;;;;;;;11.30;100.00;101412.91;5027008;28;20051;-65
2023/05/12 04:56:06;;;;;;;16.33;13.40;;;;;;;11.32;100.00;101410.81;5025491;28;20048;-65
2023/05/12 04:58:32;;;;;;;17.45;13.73;;;;;;;11.32;100.00;101411.66;5026540;28;20106;-65
2023/05/12 05:00:57;;;;;;;18.25;14.98;;;;;;;11.33;100.00;101410.56;5026441;28;20018;-65
2023/05/12 05:03:23;;;;;;;19.60;14.85;;;;;;;11.35;100.00;101413.97;5026621;28;20492;-65
2023/05/12 05:05:48;;;;;;;14.65;12.25;;;;;;;11.56;100.00;101420.16;5024839;28;20075;-65
2023/05/12 05:08:14;;;;;;;16.67;13.88;;;;;;;11.49;100.00;101422.94;5026745;28;20113;-65
2023/05/12 05:10:39;;;;;;;17.55;14.63;;;;;;;11.46;100.00;101426.16;5026250;28;20510;-64
2023/05/12 05:13:04;;;;;;;18.92;16.30;;;;;;;11.45;100.00;101427.19;5026365;28;20037;-65
2023/05/12 05:15:30;;;;;;;18.63;15.38;;;;;;;11.49;100.00;101433.13;5025081;28;20048;-63
2023/05/12 05:17:55;;;;;;;18.40;15.55;;;;;;;11.53;100.00;101429.69;5026803;28;20025;-65
2023/05/12 05:20:21;;;;;;;18.88;15.43;;;;;;;11.59;100.00;101427.97;5027042;28;20040;-62
2023/05/12 05:22:47;;;;;;;18.52;14.10;;;;;;;11.59;100.00;101437.06;5026840;28;20029;-65
2023/05/12 05:25:13;;;;;;;20.40;14.52;;;;;;;11.63;100.00;101440.22;5025467;28;20038;-65
2023/05/12 05:27:38;;;;;;;18.40;15.65;;;;;;;11.69;100.00;101442.06;5026525;28;20104;-64
2023/05/12 05:30:06;;;;;;;18.48;16.40;;;;;;;11.66;100.00;101450.78;5026718;28;20072;-65
2023/05/12 05:32:33;;;;;;;18.58;15.10;;;;;;;11.74;100.00;101447.72;5026224;28;20033;-65
2023/05/12 05:34:59;;;;;;;16.87;15.07;;;;;;;11.83;100.00;101446.44;5025671;28;20038;-65
2023/05/12 05:37:24;;;;;;;19.98;17.17;;;;;;;11.74;100.00;101452.41;5023142;28;20029;-64
2023/05/12 05:39:49;;;;;;;19.65;17.10;;;;;;;11.77;100.00;101455.56;5025662;28;20045;-65
2023/05/12 05:42:15;;;;;;;18.63;16.17;;;;;;;11.82;100.00;101454.91;5025083;28;20082;-64
2023/05/12 05:44:40;;;;;;;19.00;16.45;;;;;;;11.93;100.00;101455.03;5025906;28;20492;-65
2023/05/12 05:47:06;;;;;;;19.88;17.35;;;;;;;11.92;100.00;101467.09;5013197;28;20017;-65
2023/05/12 05:49:31;;;;;;;18.17;16.17;;;;;;;12.02;100.00;101465.75;5007007;28;20030;-65
2023/05/12 05:51:57;;;;;;;18.25;15.18;;;;;;;12.08;100.00;101464.84;5009437;28;20014;-63
2023/05/12 05:54:24;;;;;;;20.10;17.70;;;;;;;12.04;100.00;101460.88;5022013;28;20048;-64
2023/05/12 05:56:49;;;;;;;17.25;14.27;;;;;;;12.26;100.00;101467.63;5024879;28;20026;-65
2023/05/12 05:59:14;;;;;;;19.02;16.83;;;;;;;12.28;100.00;101465.50;5026242;28;20457;-65
2023/05/12 06:01:40;;;;;;;19.27;17.23;;;;;;;12.37;100.00;101472.41;5025970;28;20021;-65
2023/05/12 06:04:05;;;;;;;16.80;12.02;;;;;;;12.64;100.00;101480.41;5026230;28;20030;-66
2023/05/12 06:06:30;;;;;;;19.52;17.42;;;;;;;12.68;100.00;101479.72;5025247;28;20022;-63
2023/05/12 06:08:56;;;;;;;18.48;15.05;;;;;;;12.83;100.00;101484.00;5024960;28;20040;-65
2023/05/12 06:11:21;;;;;;;19.80;17.70;;;;;;;12.84;100.00;101482.94;5026069;28;20044;-64
2023/05/12 06:13:46;;;;;;;19.60;17.08;;;;;;;12.93;100.00;101489.81;5026342;28;20063;-65
2023/05/12 06:16:11;;;;;;;20.55;18.33;;;;;;;13.07;100.00;101488.56;5025295;28;20026;-63
2023/05/12 06:18:37;;;;;;;20.23;18.02;;;;;;;13.11;100.00;101491.69;5026079;28;20029;-65
2023/05/12 06:21:03;;;;;;;18.33;16.40;;;;;;;13.23;100.00;101498.16;5025452;28;20021;-65
2023/05/12 06:23:28;;;;;;;17.55;15.68;;;;;;;13.36;100.00;101502.66;5026047;28;20025;-65
2023/05/12 06:25:54;;;;;;;17.65;15.85;;;;;;;13.46;100.00;101501.00;5024947;28;20036;-65
2023/05/12 06:28:19;;;;;;;15.27;13.23;;;;;;;13.58;100.00;101509.31;5026063;28;20025;-65
2023/05/12 06:30:44;;;;;;;16.80;15.20;;;;;;;13.58;100.00;101511.25;5026316;28;20075;-65
2023/05/12 06:33:10;;;;;;;18.08;16.30;;;;;;;13.54;100.00;101518.34;5025458;28;20041;-65
2023/05/12 06:35:35;;;;;;;14.85;13.25;;;;;;;13.51;100.00;101514.13;5026023;28;20093;-65
2023/05/12 06:38:00;;;;;;;16.20;14.40;;;;;;;13.56;100.00;101518.94;5025145;28;20041;-65
2023/05/12 06:40:25;;;;;;;13.15;11.75;;;;;;;13.63;100.00;101526.03;5014595;28;20070;-63
2023/05/12 06:42:51;;;;;;;15.70;14.10;;;;;;;13.57;100.00;101523.38;5005893;28;20630;-65
2023/05/12 06:45:16;;;;;;;17.63;16.02;;;;;;;13.53;100.00;101522.16;5006174;28;20026;-64
2023/05/12 06:47:42;;;;;;;14.32;12.82;;;;;;;13.65;100.00;101525.81;5006048;28;20109;-64
2023/05/12 06:50:07;;;;;;;13.65;12.25;;;;;;;13.78;100.00;101525.59;5005466;28;20033;-65
2023/05/12 06:52:33;;;;;;;16.02;14.43;;;;;;;13.70;100.00;101525.94;5005433;28;20055;-64
2023/05/12 06:54:58;;;;;;;16.55;15.05;;;;;;;13.76;100.00;101536.03;5004926;28;20076;-65
2023/05/12 06:57:24;;;;;;;15.30;14.00;;;;;;;13.84;100.00;101532.97;5005622;28;20038;-65
2023/05/12 06:59:49;;;;;;;13.40;12.20;;;;;;;14.01;100.00;101539.47;5005451;28;20022;-66
2023/05/12 07:02:15;;;;;;;14.60;13.30;;;;;;;14.07;100.00;101537.69;5006933;28;20034;-64
2023/05/12 07:04:41;;;;;;;14.10;12.85;;;;;;;14.14;100.00;101543.97;5009104;28;20032;-65
2023/05/12 07:07:06;;;;;;;11.95;10.75;;;;;;;14.31;100.00;101543.25;5008885;28;20097;-63
2023/05/12 07:09:31;;;;;;;10.75;9.65;;;;;;;14.49;100.00;101532.13;5008522;28;20037;-63
2023/05/12 07:11:58;;;;;;;12.73;11.55;;;;;;;14.32;100.00;101542.19;5021584;28;20639;-65
2023/05/12 07:14:23;;;;;;;12.27;11.15;;;;;;;14.21;100.00;101546.59;5028683;28;20116;-63
2023/05/12 07:16:48;;;;;;;11.65;10.55;;;;;;;14.40;100.00;101550.13;5029020;28;20100;-65
2023/05/12 07:19:14;;;;;;;12.45;11.30;;;;;;;14.34;100.00;101551.91;5029264;28;20026;-65
2023/05/12 07:21:39;;;;;;;12.07;11.00;;;;;;;14.46;100.00;101554.69;5027994;28;20033;-65
2023/05/12 07:24:05;;;;;;;11.60;10.50;;;;;;;14.52;100.00;101551.00;5027983;28;20033;-65
2023/05/12 07:26:30;;;;;;;10.50;9.50;;;;;;;14.80;100.00;101550.28;5025159;28;20083;-63
2023/05/12 07:28:56;;;;;;;10.90;9.80;;;;;;;15.01;100.00;101543.28;5023151;28;20033;-65
2023/05/12 07:31:21;;;;;;;10.70;9.70;;;;;;;15.26;100.00;101548.50;5023056;28;20106;-64
2023/05/12 07:33:46;;;;;;;8.40;7.50;;;;;;;15.31;100.00;101546.69;5021211;28;20072;-65
2023/05/12 07:36:12;;;;;;;8.20;7.40;;;;;;;15.30;100.00;101556.06;5024449;28;20033;-64
2023/05/12 07:38:37;;;;;;;8.27;7.47;;;;;;;15.44;100.00;101550.25;5020747;28;20032;-63
2023/05/12 07:41:02;;;;;;;7.82;7.03;;;;;;;15.38;100.00;101552.06;5022326;28;20065;-65
2023/05/12 07:43:28;;;;;;;8.68;7.70;;;;;;;15.39;100.00;101550.16;5024631;28;20025;-65
2023/05/12 07:45:54;;;;;;;8.10;6.50;;;;;;;15.42;100.00;101561.56;5021251;28;20040;-65
2023/05/12 07:48:20;;;;;;;6.70;5.32;;;;;;;15.48;100.00;101563.34;5021685;28;20105;-64
2023/05/12 07:50:45;;;;;;;6.35;5.65;;;;;;;15.57;100.00;101553.59;5023695;28;20164;-63
2023/05/12 07:53:11;;;;;;;7.03;6.32;;;;;;;15.61;100.00;101564.97;5022497;28;20415;-62
2023/05/12 07:55:36;;;;;;;6.45;5.47;;;;;;;15.57;100.00;101563.81;5021262;28;20041;-64
2023/05/12 07:58:01;;;;;;;6.70;5.47;;;;;;;15.61;100.00;101564.16;5024779;28;20025;-64
2023/05/12 08:00:27;;;;;;;6.68;5.80;;;;;;;15.88;100.00;101562.50;5022285;28;20037;-64
2023/05/12 08:02:52;;;;;;;7.57;6.70;;;;;;;16.09;100.00;101567.31;5021825;28;20029;-64
2023/05/12 08:05:18;;;;;;;6.75;5.57;;;;;;;16.23;100.00;101569.78;5023715;28;20021;-63
2023/05/12 08:07:45;;;;;;;6.80;6.03;;;;;;;16.38;100.00;101574.75;5020814;28;20248;-64
2023/05/12 08:10:11;;;;;;;5.90;5.28;;;;;;;16.48;100.00;101572.97;5018271;28;20033;-64
2023/05/12 08:12:39;;;;;;;6.07;5.38;;;;;;;16.27;97.43;101576.47;5026018;28;20022;-64
2023/05/12 08:15:05;;;;;;;6.80;5.30;;;;;;;16.04;99.65;101577.47;5025126;28;20064;-64
2023/05/12 08:17:30;;;;;;;6.32;5.18;;;;;;;16.04;100.00;101578.31;5027281;28;20052;-64
2023/05/12 08:19:55;;;;;;;6.07;4.65;;;;;;;16.17;98.70;101570.75;5027337;28;20504;-65
2023/05/12 08:22:21;;;;;;;6.20;5.57;;;;;;;16.05;100.00;101574.44;5025850;28;20033;-65
2023/05/12 08:24:46;;;;;;;5.15;4.20;;;;;;;16.03;98.47;101573.03;5027330;28;20179;-65
2023/05/12 08:27:11;;;;;;;6.13;4.15;;;;;;;16.15;97.91;101581.25;5027039;28;20026;-65
2023/05/12 08:29:37;;;;;;;5.45;4.60;;;;;;;16.17;99.44;101591.03;5027561;28;20115;-64
2023/05/12 08:32:02;;;;;;;4.55;3.60;;;;;;;16.43;95.87;101575.66;5027523;28;20110;-65
2023/05/12 08:34:28;;;;;;;4.90;4.40;;;;;;;16.56;99.98;101585.56;5027362;28;20518;-64
2023/05/12 08:36:54;;;;;;;4.72;4.10;;;;;;;16.82;98.62;101596.00;5026503;28;20018;-64
2023/05/12 08:39:20;;;;;;;5.28;4.13;;;;;;;17.12;95.98;101584.50;5026666;28;20083;-65
2023/05/12 08:42:02;;;;;;;4.65;3.90;;;;;;;17.30;98.35;101600.03;5027496;28;20411;-64
2023/05/12 08:44:29;;;;;;;5.28;3.40;;;;;;;17.32;92.81;101589.50;5027561;28;20140;-65
2023/05/12 08:46:57;;;;;;;4.05;3.10;;;;;;;17.27;88.34;101592.19;5026845;28;20093;-66
2023/05/12 08:49:24;;;;;;;3.10;2.67;;;;;;;17.33;85.84;101588.38;5026850;28;20471;-64
2023/05/12 08:51:52;;;;;;;3.80;2.70;;;;;;;17.28;84.66;101598.59;5027059;28;20621;-65
2023/05/12 08:54:19;;;;;;;4.85;3.53;;;;;;;17.15;87.37;101593.44;5026114;28;20432;-64
2023/05/12 08:56:45;;;;;;;5.28;3.50;;;;;;;17.26;87.74;101595.25;5027162;28;20587;-64
2023/05/12 08:59:12;;;;;;;4.10;2.88;;;;;;;17.49;84.85;101599.72;5026983;28;20018;-63
2023/05/12 09:01:41;;;;;;;4.10;3.60;;;;;;;17.45;89.79;101602.16;5026902;28;20029;-64
2023/05/12 09:04:07;;;;;;;3.75;3.15;;;;;;;17.66;85.42;101600.47;5026066;28;20044;-65
2023/05/12 09:06:33;;;;;;;4.18;3.20;;;;;;;17.80;85.50;101606.50;5026419;28;20037;-63
2023/05/12 09:08:59;;;;;;;4.10;3.17;;;;;;;17.95;83.65;101612.22;5025745;28;20471;-64
2023/05/12 09:11:24;;;;;;;3.60;3.30;;;;;;;18.05;82.69;101604.00;5026508;28;20025;-65
2023/05/12 09:14:00;;;;;;;3.00;2.67;;;;;;;18.24;81.96;101610.00;5026735;28;20030;-65
2023/05/12 09:16:29;;;;;;;3.88;3.03;;;;;;;18.11;84.70;101616.84;5026387;28;20029;-64
2023/05/12 09:18:56;;;;;;;4.40;3.05;;;;;;;18.38;82.36;101613.19;5026466;28;20021;-65
2023/05/12 09:21:21;;;;;;;3.43;2.97;;;;;;;19.04;86.97;101610.13;5026073;28;20463;-64
2023/05/12 09:24:02;;;;;;;5.43;2.95;;;;;;;20.17;76.89;101613.13;5026409;28;20048;-65
2023/05/12 09:26:27;;;;;;;2.60;2.20;;;;;;;21.75;66.15;101603.69;5026372;28;20034;-65
2023/05/12 09:29:05;;;;;;;2.90;2.05;;;;;;;22.70;62.67;101614.50;5026864;28;20401;-65
2023/05/12 09:31:31;;;;;;;3.50;1.90;;;;;;;23.25;60.37;101603.06;5026200;28;20026;-64
2023/05/12 09:33:57;;;;;;;2.85;1.88;;;;;;;23.07;59.69;101615.06;5026095;28;20594;-65
2023/05/12 09:36:24;;;;;;;2.78;1.80;;;;;;;23.14;60.73;101616.38;5026164;28;20032;-64
2023/05/12 09:39:08;;;;;;;3.17;2.30;;;;;;;21.97;60.22;101606.09;5025311;28;20018;-65
2023/05/12 09:41:41;;;;;;;4.40;2.20;;;;;;;21.17;65.66;101614.50;5026247;28;20022;-64
2023/05/12 09:44:07;;;;;;;3.45;2.25;;;;;;;21.74;63.47;101608.44;5025775;28;20021;-64
2023/05/12 09:46:33;;;;;;;2.40;2.10;;;;;;;22.10;63.80;101616.66;5026349;28;20428;-68
2023/05/12 09:48:59;;;;;;;2.72;2.10;;;;;;;21.97;65.77;101618.09;5026047;28;20100;-65
2023/05/12 09:51:26;;;;;;;3.13;2.10;;;;;;;21.81;65.57;101615.69;5025745;28;20041;-65
2023/05/12 09:53:51;;;;;;;3.95;2.20;;;;;;;21.19;64.02;101629.88;5025634;28;20061;-66
2023/05/12 09:56:17;;;;;;;2.78;2.30;;;;;;;21.51;65.65;101625.88;5026449;28;20064;-65
2023/05/12 09:58:46;;;;;;;2.22;1.90;;;;;;;23.19;60.73;101632.28;5026326;28;20033;-65
2023/05/12 10:01:13;;;;;;;3.45;2.00;;;;;;;24.51;53.26;101624.94;5025826;28;20025;-65
2023/05/12 10:03:41;;;;;;;4.60;2.30;;;;;;;25.51;53.53;101613.31;5025936;28;20021;-65
2023/05/12 10:06:13;;;;;;;2.83;1.63;;;;;;;26.95;48.40;101622.91;5022457;28;20341;-65
2023/05/12 10:08:53;;;;;;;3.55;1.33;;;;;;;25.96;45.58;101631.22;5025398;28;20472;-66
2023/05/12 10:11:18;;;;;;;3.85;1.83;;;;;;;25.12;47.98;101633.47;5025857;28;20025;-64
2023/05/12 10:13:44;;;;;;;4.10;1.75;;;;;;;25.30;47.56;101641.00;5026133;28;20037;-66
2023/05/12 10:16:10;;;;;;;3.67;2.05;;;;;;;25.90;48.83;101631.63;5025617;28;20116;-65
2023/05/12 10:18:36;;;;;;;4.45;1.90;;;;;;;26.08;46.15;101627.84;5025921;28;20115;-64
2023/05/12 10:21:02;;;;;;;2.17;1.70;;;;;;;24.98;47.11;101634.25;5024996;28;20029;-65
2023/05/12 10:23:27;;;;;;;3.08;2.10;;;;;;;24.14;50.25;101639.00;5025293;28;20045;-66
2023/05/12 10:26:00;;;;;;;3.72;2.10;;;;;;;24.27;51.61;101636.22;5026170;28;20068;-64
2023/05/12 10:28:27;;;;;;;2.60;1.90;;;;;;;24.92;50.92;101638.28;5026264;28;20395;-65
2023/05/12 10:30:53;;;;;;;2.65;1.90;;;;;;;24.70;49.34;101635.31;5026200;28;20018;-65
2023/05/12 10:33:18;;;;;;;5.18;2.05;;;;;;;25.17;47.66;101634.22;5026225;28;20052;-64
2023/05/12 10:35:44;;;;;;;3.15;1.75;;;;;;;25.44;48.75;101635.38;5025895;28;20026;-65
2023/05/12 10:38:12;;;;;;;3.10;1.88;;;;;;;25.59;49.11;101637.88;5025474;28;20037;-66
2023/05/12 10:40:56;;;;;;;3.28;2.10;;;;;;;25.91;49.75;101641.75;5026883;28;20479;-66
2023/05/12 10:43:26;;;;;;;3.65;2.10;;;;;;;25.93;47.22;101631.00;5030061;28;20423;-65
2023/05/12 10:46:18;;;;;;;2.65;1.83;;;;;;;26.09;49.88;101640.75;5029980;28;20053;-64
2023/05/12 10:49:11;;;;;;;3.38;2.17;;;;;;;24.73;51.98;101638.34;5029935;28;20445;-64
2023/05/12 10:51:42;;;;;;;3.08;1.90;;;;;;;23.11;55.77;101647.78;5029118;28;20036;-66
2023/05/12 10:54:10;;;;;;;4.50;2.10;;;;;;;22.00;57.29;101651.13;5028385;28;20036;-66
2023/05/12 10:56:35;;;;;;;2.75;2.15;;;;;;;21.23;57.61;101646.88;5029509;28;20136;-67
2023/05/12 10:59:12;;;;;;;3.80;2.30;;;;;;;20.96;62.92;101658.38;5028741;28;20380;-66
2023/05/12 11:01:40;;;;;;;3.38;2.28;;;;;;;20.99;61.73;101647.50;5029334;28;20038;-64
2023/05/12 11:04:21;;;;;;;3.53;1.73;;;;;;;21.07;60.28;101648.88;5029293;28;20033;-65
2023/05/12 11:06:57;;;;;;;2.47;1.80;;;;;;;20.77;59.17;101648.91;5029028;28;20361;-67
2023/05/12 11:09:23;;;;;;;3.42;2.00;;;;;;;20.18;61.95;101656.63;5028365;28;20516;-67
2023/05/12 11:11:49;;;;;;;2.35;1.92;;;;;;;20.32;61.57;101648.56;5028615;28;20109;-66